Aviation Digital Data Service (ADDS)

Output produced by METARs form (1528 UTC 01 October 2016)
found at http://aviationweather.gov/adds/metars/
 
KPHL 011511Z 0115/0218 05012KT P6SM OVC007 
     TEMPO 0117/0120 4SM -DZ BR OVC005 
     FM012000 06008KT 4SM -RA BR OVC007 
     FM020000 06007KT 2SM -DZ BR OVC005 
     FM020600 06005KT 1SM -RADZ BR OVC003 
     FM021500 09003KT 4SM BR OVC008